Time;durP1;ratioP1;P1;durP2;ratioP2;P2;SDS_P1;SDS_P2;PMS_P1;PMS_P2;Temp;Humidity;BMP_temperature;BMP_pressure;BME280_temperature;BME280_humidity;BME280_pressure;Samples;Min_cycle;Max_cycle;Signal;HPM_P1;HPM_P2
2023/06/26 00:00:27;;;;;;;11.82;10.68;;;25.10;97.10;;;;;;5054527;28;20056;-71
2023/06/26 00:02:54;;;;;;;12.15;10.93;;;25.10;97.10;;;;;;5050365;28;20430;-71
2023/06/26 00:05:20;;;;;;;13.63;10.93;;;25.10;97.30;;;;;;5033593;28;20044;-71
2023/06/26 00:07:45;;;;;;;11.32;10.23;;;25.10;97.50;;;;;;5034084;28;20501;-70
2023/06/26 00:10:11;;;;;;;11.27;10.27;;;25.00;97.40;;;;;;5045600;28;20558;-71
2023/06/26 00:12:37;;;;;;;11.43;10.25;;;25.00;97.40;;;;;;5050783;28;20576;-71
2023/06/26 00:15:03;;;;;;;11.75;10.73;;;24.90;97.60;;;;;;5030015;28;20053;-71
2023/06/26 00:17:28;;;;;;;11.67;10.57;;;25.00;97.60;;;;;;5032249;28;20052;-72
2023/06/26 00:19:54;;;;;;;11.60;10.50;;;24.90;97.70;;;;;;5045241;28;20491;-71
2023/06/26 00:22:21;;;;;;;10.77;9.82;;;24.90;97.80;;;;;;5032440;28;20762;-71
2023/06/26 00:24:47;;;;;;;11.43;10.15;;;24.90;97.90;;;;;;5052217;28;20041;-70
2023/06/26 00:27:13;;;;;;;11.50;10.43;;;24.90;98.00;;;;;;5041218;28;20118;-71
2023/06/26 00:29:38;;;;;;;11.90;10.63;;;24.90;98.10;;;;;;5046283;28;20076;-71
2023/06/26 00:32:04;;;;;;;11.00;10.00;;;24.90;98.10;;;;;;5027908;28;20075;-71
2023/06/26 00:34:30;;;;;;;11.73;10.50;;;24.80;98.20;;;;;;5047087;28;20041;-70
2023/06/26 00:36:56;;;;;;;11.10;10.13;;;24.80;98.40;;;;;;5052720;28;20072;-71
2023/06/26 00:39:22;;;;;;;12.63;11.53;;;24.70;98.50;;;;;;5046554;28;20609;-71
2023/06/26 00:41:48;;;;;;;11.90;10.40;;;24.60;98.60;;;;;;5032351;28;20076;-70
2023/06/26 00:44:14;;;;;;;12.20;11.02;;;24.60;98.70;;;;;;5041250;28;20374;-71
2023/06/26 00:46:39;;;;;;;11.85;10.68;;;24.60;98.70;;;;;;5052076;28;20127;-70
2023/06/26 00:49:05;;;;;;;11.75;10.75;;;24.60;98.80;;;;;;5029377;28;20076;-71
2023/06/26 00:51:31;;;;;;;12.60;11.30;;;24.60;98.90;;;;;;5042893;28;20047;-71
2023/06/26 00:53:57;;;;;;;12.55;11.25;;;24.60;99.00;;;;;;5043547;28;21797;-71
2023/06/26 00:56:23;;;;;;;17.33;11.20;;;24.50;99.10;;;;;;5058209;28;20471;-71
2023/06/26 00:58:49;;;;;;;13.20;12.00;;;24.50;99.30;;;;;;5037855;28;20068;-71
2023/06/26 01:01:17;;;;;;;12.73;11.60;;;24.50;99.30;;;;;;5033411;28;21008;-69
2023/06/26 01:03:51;;;;;;;12.70;11.45;;;24.50;99.40;;;;;;5055596;28;20094;-70
2023/06/26 01:06:18;;;;;;;12.32;11.13;;;24.40;99.50;;;;;;5037840;28;20052;-71
2023/06/26 01:08:44;;;;;;;;;;;24.40;99.60;;;;;;5053699;28;20536;-71
2023/06/26 01:11:10;;;;;;;12.83;11.53;;;24.40;99.90;;;;;;5056383;28;19962;-70
2023/06/26 01:13:36;;;;;;;12.13;11.02;;;24.30;99.70;;;;;;5046904;28;20033;-72
2023/06/26 01:16:04;;;;;;;12.20;11.10;;;24.30;99.90;;;;;;5054453;28;20516;-71
2023/06/26 01:18:30;;;;;;;12.13;11.02;;;24.30;99.90;;;;;;5052958;28;20053;-71
2023/06/26 01:21:00;;;;;;;12.35;11.18;;;24.30;99.90;;;;;;5032349;28;20076;-71
2023/06/26 01:24:04;;;;;;;13.23;11.88;;;24.20;99.90;;;;;;5054420;28;20051;-71
2023/06/26 01:26:35;;;;;;;12.77;11.68;;;24.20;99.90;;;;;;5026434;28;20048;-71
2023/06/26 01:29:02;;;;;;;13.10;11.80;;;24.20;99.90;;;;;;5035339;28;20053;-71
2023/06/26 01:31:30;;;;;;;13.07;11.93;;;24.20;99.90;;;;;;5034219;28;20037;-71
2023/06/26 01:34:00;;;;;;;13.82;11.85;;;24.20;99.90;;;;;;5033082;28;20088;-70
2023/06/26 01:36:26;;;;;;;13.48;12.07;;;24.10;99.90;;;;;;5054595;28;20052;-70
2023/06/26 01:38:52;;;;;;;13.32;12.00;;;24.10;99.90;;;;;;5052140;28;20682;-71
2023/06/26 01:41:19;;;;;;;12.60;11.52;;;24.10;99.90;;;;;;5051169;28;20044;-70
2023/06/26 01:44:06;;;;;;;12.80;11.65;;;24.00;99.90;;;;;;5034166;28;20044;-70
2023/06/26 01:46:57;;;;;;;13.43;12.23;;;24.00;99.90;;;;;;5054151;28;20053;-71
2023/06/26 01:49:46;;;;;;;13.55;12.10;;;24.00;99.90;;;;;;5050988;28;20048;-70
2023/06/26 01:52:37;;;;;;;12.38;11.15;;;24.00;99.90;;;;;;5054906;28;20052;-70
2023/06/26 01:55:21;;;;;;;13.02;11.82;;;23.90;99.90;;;;;;5047426;28;20487;-71
2023/06/26 01:57:47;;;;;;;14.02;12.77;;;23.90;99.90;;;;;;5034278;28;21108;-70
2023/06/26 02:00:17;;;;;;;13.32;12.02;;;23.80;99.90;;;;;;5046587;28;20175;-70
2023/06/26 02:02:44;;;;;;;14.13;12.80;;;23.80;99.90;;;;;;5049573;28;20391;-71
2023/06/26 02:05:10;;;;;;;13.27;12.05;;;23.70;99.90;;;;;;5036944;28;20127;-70
2023/06/26 02:07:35;;;;;;;13.55;12.25;;;23.70;99.90;;;;;;5046896;28;20048;-70
2023/06/26 02:10:02;;;;;;;13.32;12.13;;;23.70;99.90;;;;;;5033111;28;20767;-70
2023/06/26 02:12:28;;;;;;;12.85;11.60;;;23.70;99.90;;;;;;5054159;28;20091;-71
2023/06/26 02:14:53;;;;;;;13.70;12.35;;;23.60;99.90;;;;;;5031364;28;20546;-71
2023/06/26 02:17:19;;;;;;;13.77;12.50;;;23.60;99.90;;;;;;5024257;28;20640;-70
2023/06/26 02:19:48;;;;;;;13.35;12.15;;;23.60;99.90;;;;;;5052172;28;20637;-71
2023/06/26 02:22:15;;;;;;;13.90;12.68;;;23.50;99.90;;;;;;5029122;28;20491;-71
2023/06/26 02:24:41;;;;;;;13.70;12.30;;;23.50;99.90;;;;;;5051026;28;20048;-71
2023/06/26 02:27:07;;;;;;;13.52;12.15;;;23.50;99.90;;;;;;5047275;28;20514;-71
2023/06/26 02:29:32;;;;;;;13.52;12.32;;;23.50;99.90;;;;;;5033125;28;20045;-70
2023/06/26 02:31:58;;;;;;;14.02;12.73;;;23.40;99.90;;;;;;5029706;28;20059;-70
2023/06/26 02:34:23;;;;;;;13.57;12.27;;;23.40;99.90;;;;;;5028318;28;20087;-71
2023/06/26 02:36:49;;;;;;;14.07;12.73;;;23.30;99.90;;;;;;5030405;28;20079;-71
2023/06/26 02:39:15;;;;;;;13.75;12.50;;;23.30;99.90;;;;;;5052681;28;20036;-70
2023/06/26 02:41:40;;;;;;;14.18;12.88;;;23.30;99.90;;;;;;5054866;28;20127;-70
2023/06/26 02:44:06;;;;;;;14.15;12.93;;;23.20;99.90;;;;;;5035609;28;20134;-71
2023/06/26 02:46:33;;;;;;;14.10;12.73;;;23.20;99.90;;;;;;5045243;28;20052;-73
2023/06/26 02:48:59;;;;;;;13.93;12.63;;;23.10;99.90;;;;;;5045729;28;20057;-74
2023/06/26 02:51:25;;;;;;;15.13;13.52;;;23.10;99.90;;;;;;5054557;28;20055;-73
2023/06/26 02:53:50;;;;;;;14.63;13.02;;;23.00;99.90;;;;;;5049420;28;20415;-74
2023/06/26 02:56:16;;;;;;;14.38;13.05;;;23.00;99.90;;;;;;5025531;28;20041;-73
2023/06/26 02:58:42;;;;;;;15.05;13.75;;;23.00;99.90;;;;;;5044729;28;20127;-72
2023/06/26 03:01:07;;;;;;;16.92;15.18;;;23.00;99.90;;;;;;5044655;28;20136;-72
2023/06/26 03:03:40;;;;;;;16.63;15.02;;;22.90;99.90;;;;;;5048738;28;20464;-72
2023/06/26 03:06:07;;;;;;;16.95;15.45;;;22.80;99.90;;;;;;5033939;28;20455;-73
2023/06/26 03:08:33;;;;;;;15.93;14.43;;;22.80;99.90;;;;;;5033309;28;20052;-73
2023/06/26 03:10:59;;;;;;;16.33;14.88;;;22.80;99.90;;;;;;5028358;28;20044;-73
2023/06/26 03:13:24;;;;;;;16.42;14.77;;;22.70;99.90;;;;;;5051904;28;20671;-73
2023/06/26 03:15:50;;;;;;;16.30;14.75;;;22.60;99.90;;;;;;5051855;28;20048;-73
2023/06/26 03:18:16;;;;;;;17.73;14.88;;;22.50;99.90;;;;;;5032470;28;20060;-73
2023/06/26 03:20:41;;;;;;;16.52;14.55;;;22.50;99.90;;;;;;5032021;28;20476;-73
2023/06/26 03:23:07;;;;;;;17.50;15.13;;;22.50;99.90;;;;;;5051318;28;20728;-73
2023/06/26 03:25:33;;;;;;;19.00;15.32;;;22.50;99.90;;;;;;5053525;28;20177;-73
2023/06/26 03:27:58;;;;;;;17.38;15.57;;;22.50;99.90;;;;;;5043201;28;20094;-73
2023/06/26 03:30:24;;;;;;;17.83;15.95;;;22.50;99.90;;;;;;5046792;28;20099;-73
2023/06/26 03:32:49;;;;;;;17.92;15.68;;;22.50;99.90;;;;;;5048951;28;20102;-73
2023/06/26 03:35:15;;;;;;;19.50;15.73;;;22.40;99.90;;;;;;5055493;28;20122;-74
2023/06/26 03:37:41;;;;;;;17.05;15.32;;;22.40;99.90;;;;;;5053158;28;20176;-73
2023/06/26 03:40:07;;;;;;;17.73;16.02;;;22.40;99.90;;;;;;5051200;28;20045;-72
2023/06/26 03:42:33;;;;;;;17.97;15.53;;;22.40;99.90;;;;;;5027509;28;20040;-73
2023/06/26 03:44:58;;;;;;;16.98;15.38;;;22.40;99.90;;;;;;5027369;28;20317;-73
2023/06/26 03:47:24;;;;;;;16.88;15.07;;;22.40;99.90;;;;;;5047505;28;20045;-73
2023/06/26 03:49:49;;;;;;;16.60;14.95;;;22.40;99.90;;;;;;5052279;28;20064;-72
2023/06/26 03:52:15;;;;;;;16.60;15.10;;;22.30;99.90;;;;;;5024700;28;20048;-73
2023/06/26 03:54:41;;;;;;;17.95;16.20;;;22.30;99.90;;;;;;5028133;28;20057;-74
2023/06/26 03:57:07;;;;;;;17.70;16.10;;;22.30;99.90;;;;;;5029908;28;20052;-72
2023/06/26 03:59:32;;;;;;;16.80;15.25;;;22.30;99.90;;;;;;5037213;28;20122;-73
2023/06/26 04:01:58;;;;;;;17.30;15.30;;;22.20;99.90;;;;;;5034493;28;20044;-73
2023/06/26 04:04:24;;;;;;;16.98;15.48;;;22.20;99.90;;;;;;5049634;28;21800;-73
2023/06/26 04:06:50;;;;;;;15.63;14.32;;;22.20;99.90;;;;;;5051886;28;20120;-73
2023/06/26 04:09:16;;;;;;;16.58;14.98;;;22.30;99.90;;;;;;5046066;28;20095;-73
2023/06/26 04:11:42;;;;;;;15.83;14.30;;;22.30;99.90;;;;;;5034289;28;20146;-71
2023/06/26 04:14:08;;;;;;;17.08;15.48;;;22.30;99.90;;;;;;5027076;28;20148;-70
2023/06/26 04:16:33;;;;;;;16.77;15.18;;;22.30;99.90;;;;;;5030238;28;20510;-70
2023/06/26 04:18:59;;;;;;;17.58;15.73;;;22.40;99.90;;;;;;5030533;28;20047;-71
2023/06/26 04:21:25;;;;;;;16.35;14.85;;;22.40;99.90;;;;;;5048294;28;20205;-71
2023/06/26 04:23:51;;;;;;;15.43;13.70;;;22.40;99.90;;;;;;5049230;28;20052;-69
2023/06/26 04:26:17;;;;;;;15.15;13.73;;;22.50;99.90;;;;;;5049769;28;20044;-70
2023/06/26 04:28:43;;;;;;;15.48;14.07;;;22.60;99.90;;;;;;5030103;28;21112;-71
2023/06/26 04:31:09;;;;;;;15.50;14.10;;;22.70;99.90;;;;;;5032763;28;20499;-72
2023/06/26 04:33:38;;;;;;;15.65;14.25;;;22.70;99.90;;;;;;5052735;28;20040;-70
2023/06/26 04:36:04;;;;;;;16.17;14.52;;;22.70;99.90;;;;;;5039177;28;20051;-70
2023/06/26 04:38:33;;;;;;;15.52;14.15;;;22.80;99.90;;;;;;5032880;28;20045;-73
2023/06/26 04:41:01;;;;;;;15.48;13.98;;;22.80;99.90;;;;;;5056569;28;20473;-73
2023/06/26 04:43:26;;;;;;;15.02;13.70;;;22.80;99.90;;;;;;5052929;28;22370;-71
2023/06/26 04:45:52;;;;;;;16.50;15.13;;;22.90;99.90;;;;;;5037838;28;20057;-70
2023/06/26 04:48:18;;;;;;;16.23;14.75;;;22.90;99.90;;;;;;5055620;28;20051;-71
2023/06/26 04:50:53;;;;;;;16.52;14.93;;;22.90;99.90;;;;;;5054200;28;20056;-72
2023/06/26 04:53:21;;;;;;;15.30;13.90;;;22.90;99.90;;;;;;5055401;28;20060;-73
2023/06/26 04:55:46;;;;;;;15.82;14.32;;;22.90;99.90;;;;;;5053752;28;20499;-72
2023/06/26 04:58:12;;;;;;;15.90;14.32;;;23.00;99.90;;;;;;5034374;28;20059;-73
2023/06/26 05:00:38;;;;;;;15.73;14.23;;;23.10;99.90;;;;;;5048938;28;20053;-73
2023/06/26 05:03:03;;;;;;;15.95;13.85;;;23.00;99.90;;;;;;5043272;28;20098;-73
2023/06/26 05:05:29;;;;;;;15.50;13.10;;;23.10;99.90;;;;;;5055211;28;20044;-71
2023/06/26 05:07:55;;;;;;;14.35;12.35;;;23.00;99.90;;;;;;5030692;28;20059;-71
2023/06/26 05:10:21;;;;;;;13.77;12.25;;;23.10;99.90;;;;;;5052687;28;20048;-70
2023/06/26 05:12:47;;;;;;;13.00;11.65;;;23.10;99.90;;;;;;5053726;28;20048;-70
2023/06/26 05:15:13;;;;;;;13.05;11.30;;;23.00;99.90;;;;;;5042731;28;20079;-72
2023/06/26 05:17:38;;;;;;;12.45;10.63;;;23.00;99.90;;;;;;5037766;28;20659;-71
2023/06/26 05:20:05;;;;;;;15.50;11.05;;;23.10;99.90;;;;;;5031109;28;20041;-73
2023/06/26 05:22:35;;;;;;;12.40;10.73;;;23.10;99.90;;;;;;5052850;28;20052;-74
2023/06/26 05:25:03;;;;;;;12.55;11.18;;;23.20;99.90;;;;;;5047834;28;20071;-73
2023/06/26 05:27:29;;;;;;;13.25;10.60;;;23.30;99.90;;;;;;5038729;28;20092;-73
2023/06/26 05:29:55;;;;;;;12.85;9.25;;;23.30;99.90;;;;;;5052900;28;20575;-73
2023/06/26 05:32:21;;;;;;;12.15;9.60;;;23.30;99.90;;;;;;5025723;28;20079;-73
2023/06/26 05:34:54;;;;;;;18.20;9.65;;;23.30;99.90;;;;;;5030353;28;20041;-73
2023/06/26 05:37:24;;;;;;;14.30;9.10;;;23.30;99.90;;;;;;5055314;28;20056;-72
2023/06/26 05:39:50;;;;;;;11.60;9.07;;;23.10;99.90;;;;;;5050221;28;20049;-72
2023/06/26 05:42:16;;;;;;;16.00;8.85;;;23.00;99.90;;;;;;5027379;28;20557;-72
2023/06/26 05:44:42;;;;;;;11.27;8.88;;;23.00;99.90;;;;;;5051979;28;20468;-73
2023/06/26 05:47:08;;;;;;;11.82;8.10;;;22.90;99.90;;;;;;5049227;28;20111;-72
2023/06/26 05:49:34;;;;;;;11.70;8.57;;;22.80;99.90;;;;;;5042016;28;20052;-72
2023/06/26 05:52:00;;;;;;;12.40;8.43;;;22.80;99.90;;;;;;5024043;28;20414;-73
2023/06/26 05:54:26;;;;;;;17.63;9.48;;;22.70;99.90;;;;;;5044870;28;21002;-72
2023/06/26 05:56:57;;;;;;;15.82;9.13;;;22.60;99.90;;;;;;5049386;28;20139;-72
2023/06/26 05:59:23;;;;;;;14.45;8.90;;;22.60;99.90;;;;;;5047465;28;20711;-72
2023/06/26 06:01:48;;;;;;;19.73;9.70;;;22.50;99.90;;;;;;5050828;28;20066;-72
2023/06/26 06:04:14;;;;;;;18.17;10.05;;;22.50;99.90;;;;;;5041380;28;20037;-72
2023/06/26 06:06:40;;;;;;;15.82;9.60;;;22.50;99.90;;;;;;5044813;28;20048;-71
2023/06/26 06:09:05;;;;;;;16.67;9.27;;;22.50;99.90;;;;;;5038265;28;20044;-71
2023/06/26 06:11:31;;;;;;;13.27;8.80;;;22.40;99.90;;;;;;5029891;28;20052;-73
2023/06/26 06:13:58;;;;;;;12.88;9.00;;;22.40;99.90;;;;;;5043902;28;20056;-71
2023/06/26 06:16:24;;;;;;;15.73;9.13;;;22.40;99.90;;;;;;5045467;28;20060;-71
2023/06/26 06:18:50;;;;;;;14.10;7.90;;;22.40;99.90;;;;;;5044633;28;20048;-71
2023/06/26 06:21:15;;;;;;;14.57;8.63;;;22.40;99.90;;;;;;5053314;28;20062;-71
2023/06/26 06:23:41;;;;;;;14.90;8.75;;;22.50;99.90;;;;;;5046931;28;20800;-71
2023/06/26 06:26:10;;;;;;;13.05;7.85;;;22.50;99.90;;;;;;5051936;28;20477;-72
2023/06/26 06:28:35;;;;;;;13.02;7.95;;;22.50;99.90;;;;;;5040343;28;20066;-71
2023/06/26 06:31:01;;;;;;;14.07;8.85;;;22.60;99.90;;;;;;5050996;28;20056;-73
2023/06/26 06:33:27;;;;;;;13.68;8.30;;;22.50;99.90;;;;;;5048648;28;20076;-73
2023/06/26 06:35:52;;;;;;;14.43;7.85;;;22.50;99.90;;;;;;5031720;28;20113;-73
2023/06/26 06:38:18;;;;;;;13.82;8.75;;;22.40;99.90;;;;;;5029471;28;20475;-74
2023/06/26 06:40:43;;;;;;;12.68;8.27;;;22.40;99.90;;;;;;5030062;28;20055;-74
2023/06/26 06:43:09;;;;;;;11.63;7.97;;;22.50;99.90;;;;;;5049650;28;20040;-74
2023/06/26 06:45:36;;;;;;;13.65;7.65;;;22.60;99.90;;;;;;5029607;28;20162;-74
2023/06/26 06:48:01;;;;;;;12.20;7.40;;;22.60;99.90;;;;;;5052300;28;20177;-73
2023/06/26 06:50:27;;;;;;;14.43;6.65;;;22.60;99.90;;;;;;5059325;28;20048;-73
2023/06/26 06:52:53;;;;;;;11.80;6.85;;;22.60;99.90;;;;;;5048284;28;20052;-72
2023/06/26 06:55:18;;;;;;;10.70;6.10;;;22.50;99.90;;;;;;5055860;28;20044;-72
2023/06/26 06:57:44;;;;;;;8.73;5.22;;;22.40;99.90;;;;;;5044921;28;20885;-73
2023/06/26 07:00:16;;;;;;;8.77;4.82;;;22.50;99.90;;;;;;5045006;28;20072;-74
2023/06/26 07:02:44;;;;;;;10.07;5.07;;;22.50;99.90;;;;;;5053379;28;20055;-75
2023/06/26 07:05:10;;;;;;;7.38;4.53;;;22.60;99.90;;;;;;5056918;28;20052;-76
2023/06/26 07:07:36;;;;;;;10.52;4.80;;;22.70;99.90;;;;;;5036762;28;20048;-75
2023/06/26 07:10:11;;;;;;;12.15;5.30;;;22.80;99.90;;;;;;5035520;28;20656;-72
2023/06/26 07:12:37;;;;;;;10.55;4.57;;;22.90;99.90;;;;;;5049932;28;20572;-73
2023/06/26 07:15:04;;;;;;;10.00;4.80;;;22.90;99.90;;;;;;5049197;28;20670;-73
2023/06/26 07:17:30;;;;;;;;;;;22.90;99.90;;;;;;5029310;28;20063;-73
2023/06/26 07:19:56;;;;;;;9.65;4.32;;;22.90;99.90;;;;;;5033124;28;19924;-72
2023/06/26 07:22:23;;;;;;;9.98;4.70;;;22.90;99.90;;;;;;5050956;28;20045;-75
2023/06/26 07:24:49;;;;;;;10.75;3.85;;;22.90;99.90;;;;;;5055044;28;20071;-75
2023/06/26 07:27:18;;;;;;;10.23;3.72;;;22.90;99.90;;;;;;5052214;28;20486;-74
2023/06/26 07:29:44;;;;;;;5.38;3.20;;;23.00;99.90;;;;;;5048383;28;20057;-75
2023/06/26 07:32:10;;;;;;;6.93;3.83;;;23.10;99.90;;;;;;5053168;28;20047;-76
2023/06/26 07:34:36;;;;;;;7.88;3.50;;;23.10;99.90;;;;;;5053297;28;20041;-78
2023/06/26 07:37:01;;;;;;;6.55;3.20;;;23.10;99.90;;;;;;5051264;28;20056;-75
2023/06/26 07:39:27;;;;;;;6.60;2.80;;;23.20;99.90;;;;;;5049418;28;20067;-73
2023/06/26 07:41:53;;;;;;;10.23;3.20;;;23.20;99.90;;;;;;5039522;28;20468;-72
2023/06/26 07:44:18;;;;;;;5.53;2.58;;;23.30;99.90;;;;;;5052885;28;20399;-73
2023/06/26 07:46:47;;;;;;;5.78;2.47;;;23.20;99.90;;;;;;5041758;28;20041;-78
2023/06/26 07:49:13;;;;;;;6.38;2.20;;;23.20;99.90;;;;;;5057503;28;20051;-72
2023/06/26 07:51:38;;;;;;;9.27;2.58;;;23.20;99.90;;;;;;5031157;28;20040;-73
2023/06/26 07:54:04;;;;;;;5.18;2.20;;;23.20;99.80;;;;;;5032506;28;20083;-73
2023/06/26 07:56:30;;;;;;;7.60;2.30;;;23.20;99.90;;;;;;5057651;28;20578;-72
2023/06/26 07:58:57;;;;;;;4.88;2.13;;;23.20;99.90;;;;;;5052121;28;20056;-72
2023/06/26 08:01:23;;;;;;;6.90;2.55;;;23.20;99.90;;;;;;5048794;28;20105;-73
2023/06/26 08:03:49;;;;;;;7.32;2.20;;;23.30;99.90;;;;;;5021742;28;20158;-74
2023/06/26 08:06:16;;;;;;;5.43;2.10;;;23.30;99.90;;;;;;5054232;28;20049;-72
2023/06/26 08:08:41;;;;;;;6.37;2.17;;;23.30;99.90;;;;;;5048591;28;20121;-73
2023/06/26 08:11:07;;;;;;;5.55;2.10;;;23.40;99.90;;;;;;5037169;28;20045;-72
2023/06/26 08:13:33;;;;;;;5.18;2.17;;;23.40;99.90;;;;;;5052515;28;20056;-72
2023/06/26 08:15:58;;;;;;;3.30;2.00;;;23.50;99.90;;;;;;5047354;28;20182;-74
2023/06/26 08:18:24;;;;;;;7.88;2.22;;;23.60;99.90;;;;;;5055415;28;20476;-71
2023/06/26 08:20:50;;;;;;;6.35;2.50;;;23.70;99.90;;;;;;5058503;28;21762;-74
2023/06/26 08:23:15;;;;;;;5.95;2.30;;;23.80;99.90;;;;;;5041399;28;20046;-73
2023/06/26 08:25:41;;;;;;;4.22;2.13;;;23.90;99.90;;;;;;5057848;28;20032;-73
2023/06/26 08:28:06;;;;;;;5.03;2.40;;;23.80;99.80;;;;;;5057034;28;20040;-74
2023/06/26 08:30:33;;;;;;;3.05;2.03;;;23.80;99.70;;;;;;5036745;28;20052;-72
2023/06/26 08:32:58;;;;;;;3.85;2.22;;;23.80;99.70;;;;;;5050854;28;20043;-74
2023/06/26 08:35:24;;;;;;;3.95;1.90;;;23.80;99.40;;;;;;5044139;28;20045;-72
2023/06/26 08:37:50;;;;;;;7.28;2.25;;;23.80;99.20;;;;;;5051956;28;20033;-72
2023/06/26 08:40:19;;;;;;;5.22;2.25;;;23.80;98.90;;;;;;5028247;28;20043;-72
2023/06/26 08:42:44;;;;;;;8.30;2.40;;;23.90;98.50;;;;;;5047089;28;20048;-74
2023/06/26 08:45:10;;;;;;;6.07;2.03;;;23.80;98.60;;;;;;5026857;28;20062;-74
2023/06/26 08:47:37;;;;;;;3.63;2.28;;;23.70;98.90;;;;;;5053175;28;20047;-75
2023/06/26 08:50:13;;;;;;;5.32;2.30;;;23.60;99.10;;;;;;5043699;28;20095;-73
2023/06/26 08:53:04;;;;;;;6.53;1.77;;;23.60;99.00;;;;;;5034558;28;20028;-74
2023/06/26 08:55:33;;;;;;;6.30;2.20;;;23.60;98.50;;;;;;5042666;28;20092;-74
2023/06/26 08:57:59;;;;;;;6.47;1.92;;;23.70;98.80;;;;;;5030064;28;20072;-74
2023/06/26 09:00:25;;;;;;;7.60;2.10;;;23.80;98.50;;;;;;5048519;28;20045;-73
2023/06/26 09:02:51;;;;;;;5.05;2.10;;;23.90;98.20;;;;;;5053761;28;20047;-73
2023/06/26 09:05:17;;;;;;;5.25;2.33;;;24.00;97.90;;;;;;5051680;28;20084;-73
2023/06/26 09:07:43;;;;;;;6.17;2.50;;;24.10;97.70;;;;;;5057384;28;20045;-73
2023/06/26 09:10:09;;;;;;;7.32;2.20;;;24.00;97.70;;;;;;5051034;28;20041;-73
2023/06/26 09:12:36;;;;;;;6.28;2.30;;;23.80;97.40;;;;;;5033014;28;20044;-73
2023/06/26 09:15:03;;;;;;;4.65;1.95;;;23.80;97.90;;;;;;5055940;28;20055;-70
2023/06/26 09:17:38;;;;;;;4.57;2.05;;;23.70;97.90;;;;;;5060002;28;20044;-72
2023/06/26 09:20:04;;;;;;;4.53;1.90;;;23.70;97.90;;;;;;5038079;28;20136;-72
2023/06/26 09:22:36;;;;;;;4.70;2.10;;;23.80;98.30;;;;;;5055333;28;20044;-73
2023/06/26 09:25:02;;;;;;;7.55;2.30;;;23.90;97.90;;;;;;5020510;28;20771;-73
2023/06/26 09:27:28;;;;;;;3.90;2.10;;;23.80;97.60;;;;;;5051242;28;20052;-72
2023/06/26 09:29:53;;;;;;;6.30;2.20;;;23.80;97.60;;;;;;5056939;28;20302;-72
2023/06/26 09:32:19;;;;;;;4.38;2.10;;;23.80;97.60;;;;;;5049827;28;20077;-74
2023/06/26 09:34:45;;;;;;;6.60;2.03;;;23.90;97.50;;;;;;5031484;28;20040;-73
2023/06/26 09:37:14;;;;;;;3.22;2.20;;;24.00;97.90;;;;;;5031539;28;20058;-74
2023/06/26 09:39:39;;;;;;;4.80;2.00;;;24.20;98.00;;;;;;5054741;28;20045;-74
2023/06/26 09:42:06;;;;;;;4.05;2.10;;;24.40;97.30;;;;;;5056675;28;20058;-73
2023/06/26 09:44:33;;;;;;;6.20;2.35;;;24.30;96.70;;;;;;5052859;28;20131;-75
2023/06/26 09:47:01;;;;;;;2.83;2.10;;;24.10;96.30;;;;;;5050224;28;20056;-73
2023/06/26 09:49:27;;;;;;;4.63;2.08;;;23.90;96.50;;;;;;5055713;28;20495;-75
2023/06/26 09:51:53;;;;;;;6.57;2.40;;;23.70;96.90;;;;;;5033964;28;20040;-73
2023/06/26 09:54:21;;;;;;;5.85;2.40;;;23.70;97.70;;;;;;5052075;28;20050;-74
2023/06/26 09:56:47;;;;;;;7.28;2.63;;;23.90;98.00;;;;;;5054992;28;20094;-74
2023/06/26 09:59:13;;;;;;;5.78;2.65;;;24.00;97.90;;;;;;5029644;28;20147;-73
2023/06/26 10:01:46;;;;;;;3.60;2.25;;;24.20;98.20;;;;;;5055425;28;20052;-75
2023/06/26 10:04:12;;;;;;;5.50;2.65;;;24.40;97.70;;;;;;5042282;28;20083;-73
2023/06/26 10:06:45;;;;;;;5.85;2.63;;;24.50;97.60;;;;;;5057218;28;20127;-75
2023/06/26 10:09:13;;;;;;;9.98;3.00;;;24.60;97.20;;;;;;5039668;28;20475;-74
2023/06/26 10:12:06;;;;;;;4.85;2.20;;;24.60;95.90;;;;;;5040560;28;20513;-75
2023/06/26 10:14:37;;;;;;;9.70;3.10;;;24.50;95.30;;;;;;5033174;28;20041;-74
2023/06/26 10:17:06;;;;;;;10.82;2.75;;;24.50;95.80;;;;;;5053911;28;20079;-74
2023/06/26 10:19:35;;;;;;;4.38;2.45;;;24.40;95.80;;;;;;5057667;28;20044;-74
2023/06/26 10:22:02;;;;;;;8.23;2.53;;;24.40;95.80;;;;;;5058547;28;20079;-74
2023/06/26 10:24:31;;;;;;;4.18;2.30;;;24.20;94.70;;;;;;5058824;28;20044;-71
2023/06/26 10:27:07;;;;;;;5.30;2.40;;;24.20;94.50;;;;;;5047948;28;20044;-72
2023/06/26 10:29:35;;;;;;;4.45;2.67;;;24.10;94.50;;;;;;5045256;28;20820;-70
2023/06/26 10:32:04;;;;;;;6.70;2.53;;;24.10;94.60;;;;;;5032037;28;20049;-72
2023/06/26 10:34:30;;;;;;;5.32;2.58;;;24.20;95.40;;;;;;5055135;28;20052;-71
2023/06/26 10:37:00;;;;;;;4.47;2.50;;;24.20;95.20;;;;;;5047836;28;20052;-71
2023/06/26 10:39:26;;;;;;;8.52;2.70;;;24.20;93.90;;;;;;5052080;28;20110;-73
2023/06/26 10:41:55;;;;;;;6.43;2.47;;;24.20;94.00;;;;;;5051817;28;20072;-73
2023/06/26 10:44:21;;;;;;;5.68;2.40;;;24.30;93.50;;;;;;5051396;28;20965;-73
2023/06/26 10:46:55;;;;;;;7.32;2.40;;;24.20;93.20;;;;;;5051552;28;20044;-72
2023/06/26 10:49:25;;;;;;;5.75;2.35;;;24.30;93.50;;;;;;5053379;28;20611;-72
2023/06/26 10:51:51;;;;;;;7.82;2.45;;;24.30;93.20;;;;;;5052624;28;20115;-73
2023/06/26 10:54:19;;;;;;;7.32;2.50;;;24.40;93.60;;;;;;5051688;28;20060;-74
2023/06/26 10:56:46;;;;;;;6.25;2.20;;;24.40;92.50;;;;;;5058575;28;20412;-72
2023/06/26 10:59:20;;;;;;;3.85;2.03;;;24.50;92.00;;;;;;5056763;28;20400;-72
2023/06/26 11:02:06;;;;;;;11.50;2.42;;;24.50;91.50;;;;;;5050830;28;20049;-71
2023/06/26 11:04:45;;;;;;;5.50;2.50;;;24.60;89.50;;;;;;5051211;28;20165;-72
2023/06/26 11:07:24;;;;;;;4.72;2.10;;;24.70;91.70;;;;;;5049931;28;20051;-74
2023/06/26 11:10:10;;;;;;;8.43;2.67;;;24.90;91.10;;;;;;5039330;28;20131;-73
2023/06/26 11:12:37;;;;;;;8.95;2.80;;;25.00;89.50;;;;;;5052200;28;20071;-73
2023/06/26 11:15:14;;;;;;;5.20;2.13;;;25.10;90.10;;;;;;5058669;28;20988;-72
2023/06/26 11:17:41;;;;;;;7.18;2.63;;;25.10;88.10;;;;;;5040558;28;20033;-71
2023/06/26 11:20:10;;;;;;;4.35;2.30;;;25.10;87.10;;;;;;5055595;28;20491;-74
2023/06/26 11:22:37;;;;;;;6.35;2.80;;;25.10;87.40;;;;;;5054771;28;20083;-75
2023/06/26 11:25:05;;;;;;;5.97;2.67;;;25.10;87.40;;;;;;5035485;28;20044;-71
2023/06/26 11:27:43;;;;;;;14.15;2.95;;;25.00;87.00;;;;;;5041460;28;20412;-71
2023/06/26 11:30:11;;;;;;;8.15;2.30;;;25.00;86.10;;;;;;5048546;28;20109;-73
2023/06/26 11:32:38;;;;;;;5.03;2.22;;;25.00;85.80;;;;;;5054475;28;20048;-75
2023/06/26 11:35:07;;;;;;;4.90;2.85;;;24.90;86.20;;;;;;5056189;28;20071;-73
2023/06/26 11:37:33;;;;;;;7.15;2.15;;;25.00;87.70;;;;;;5056225;28;20048;-73
2023/06/26 11:39:59;;;;;;;9.07;2.45;;;24.90;83.40;;;;;;5038433;28;20041;-74
2023/06/26 11:42:25;;;;;;;12.13;2.40;;;24.80;79.40;;;;;;5049147;28;20106;-73
2023/06/26 11:44:52;;;;;;;6.45;2.35;;;24.80;79.90;;;;;;5058045;28;21243;-74
2023/06/26 11:47:18;;;;;;;;;;;24.80;79.00;;;;;;5030898;28;20048;-73
2023/06/26 11:49:45;;;;;;;8.75;2.30;;;24.80;79.20;;;;;;5031342;28;19929;-76
2023/06/26 11:52:11;;;;;;;5.38;2.17;;;24.90;80.70;;;;;;5049961;28;20123;-76
2023/06/26 11:54:37;;;;;;;10.43;2.10;;;24.90;79.30;;;;;;5056590;28;20052;-75
2023/06/26 11:57:03;;;;;;;9.73;2.60;;;24.80;79.40;;;;;;5057709;28;20044;-75
2023/06/26 11:59:36;;;;;;;6.47;2.22;;;24.70;80.70;;;;;;5061163;28;20057;-75
2023/06/26 12:02:15;;;;;;;6.03;2.13;;;24.80;82.10;;;;;;5041832;28;20064;-75
2023/06/26 12:04:43;;;;;;;5.95;2.05;;;25.00;83.60;;;;;;5058165;28;20072;-77
2023/06/26 12:07:10;;;;;;;7.72;1.80;;;25.10;82.90;;;;;;5035465;28;21055;-75
2023/06/26 12:09:41;;;;;;;8.25;1.83;;;25.10;79.70;;;;;;5055694;28;20094;-76
2023/06/26 12:12:08;;;;;;;5.65;1.73;;;25.10;73.40;;;;;;5031825;28;20487;-77
2023/06/26 12:14:34;;;;;;;5.68;1.83;;;25.10;73.10;;;;;;5040625;28;20072;-77
2023/06/26 12:17:14;;;;;;;8.10;2.28;;;25.10;74.10;;;;;;5054882;28;20091;-74
2023/06/26 12:19:49;;;;;;;9.05;2.13;;;25.10;75.60;;;;;;5034185;28;20131;-74
2023/06/26 12:22:16;;;;;;;4.82;1.65;;;25.20;76.50;;;;;;5052690;28;20059;-73
2023/06/26 12:24:43;;;;;;;4.75;1.60;;;25.20;73.90;;;;;;5038637;28;20534;-73
2023/06/26 12:27:10;;;;;;;4.05;1.77;;;25.20;71.40;;;;;;5046205;28;20040;-74
2023/06/26 12:29:38;;;;;;;5.38;1.55;;;25.10;70.80;;;;;;5061252;28;20048;-74
2023/06/26 12:32:05;;;;;;;5.00;1.50;;;25.10;72.80;;;;;;5053772;28;20056;-75
2023/06/26 12:34:33;;;;;;;4.07;1.58;;;25.20;74.60;;;;;;5035984;28;20037;-74
2023/06/26 12:37:10;;;;;;;8.60;1.85;;;25.10;74.00;;;;;;5033253;28;20088;-74
2023/06/26 12:40:18;;;;;;;7.22;1.58;;;25.10;70.00;;;;;;5050422;28;20079;-73